Time;durP1;ratioP1;P1;durP2;ratioP2;P2;SDS_P1;SDS_P2;PMS_P1;PMS_P2;Temp;Humidity;BMP_temperature;BMP_pressure;BME280_temperature;BME280_humidity;BME280_pressure;Samples;Min_cycle;Max_cycle;Signal;HPM_P1;HPM_P2
2023/10/09 00:01:26;;;;;;;;;;;;;;;4.86;67.88;101925.73;105652;1263;66243;-77
2023/10/09 00:03:55;;;;;;;;;;;;;;;4.89;67.97;101917.60;105632;1259;71328;-77
2023/10/09 00:06:36;;;;;;;;;;;;;;;4.93;67.95;101905.17;108765;1259;124359;-77
2023/10/09 00:11:45;;;;;;;;;;;;;;;5.02;67.92;101888.20;107928;1259;124512;-77
2023/10/09 00:14:12;;;;;;;;;;;;;;;5.05;68.01;101880.92;105632;1260;64768;-79
2023/10/09 00:16:56;;;;;;;;;;;;;;;5.10;67.92;101871.27;105586;1259;124123;-78
2023/10/09 00:19:32;;;;;;;;;;;;;;;5.15;68.11;101864.98;105788;1258;61327;-78
2023/10/09 00:22:04;;;;;;;;;;;;;;;5.19;68.05;101861.65;105614;1260;124590;-77
2023/10/09 00:24:33;;;;;;;;;;;;;;;5.22;67.96;101864.10;105961;1259;74685;-78
2023/10/09 00:27:19;;;;;;;;;;;;;;;5.24;67.89;101858.62;105633;1259;66128;-77
2023/10/09 00:29:45;;;;;;;;;;;;;;;5.26;67.95;101858.40;105638;1259;123999;-79
2023/10/09 00:32:32;;;;;;;;;;;;;;;5.28;67.88;101861.47;105763;1262;61183;-78
2023/10/09 00:35:35;;;;;;;;;;;;;;;5.29;67.81;101860.14;105723;1258;124513;-78
2023/10/09 00:37:45;;;;;;;;;;;;;;;5.29;67.78;101855.66;105774;1259;73466;-77
2023/10/09 00:40:27;;;;;;;;;;;;;;;5.31;67.73;101856.13;105741;1260;124060;-78
2023/10/09 00:42:55;;;;;;;;;;;;;;;5.35;67.71;101850.42;105694;1265;70197;-77
2023/10/09 00:45:28;;;;;;;;;;;;;;;5.36;67.61;101849.67;105695;1264;61341;-77
2023/10/09 00:47:59;;;;;;;;;;;;;;;5.38;67.68;101855.52;108763;1259;124466;-77
2023/10/09 00:50:26;;;;;;;;;;;;;;;5.39;67.52;101848.99;108940;1259;73062;-78
2023/10/09 00:53:01;;;;;;;;;;;;;;;5.41;67.44;101852.45;108764;1259;124896;-78
2023/10/09 00:55:38;;;;;;;;;;;;;;;5.42;67.40;101853.17;105879;1262;72406;-77
2023/10/09 00:58:10;;;;;;;;;;;;;;;5.43;67.35;101852.39;105536;1258;124285;-76
2023/10/09 01:00:46;;;;;;;;;;;;;;;5.45;67.31;101854.24;107692;1259;59932;-76
2023/10/09 01:03:19;;;;;;;;;;;;;;;5.47;67.23;101857.29;105759;1259;74718;-76
2023/10/09 01:10:58;;;;;;;;;;;;;;;5.52;67.33;101848.04;106283;1259;124240;-77
2023/10/09 01:13:38;;;;;;;;;;;;;;;5.53;67.28;101851.45;105728;1260;61362;-78
2023/10/09 01:16:06;;;;;;;;;;;;;;;5.54;67.23;101848.34;105695;1259;124862;-79
2023/10/09 01:18:37;;;;;;;;;;;;;;;5.56;67.32;101852.12;105675;1259;66647;-77
2023/10/09 01:21:04;;;;;;;;;;;;;;;5.56;67.18;101854.94;105681;1259;72406;-77
2023/10/09 01:23:30;;;;;;;;;;;;;;;5.58;67.22;101847.19;105535;1260;124057;-77
2023/10/09 01:25:57;;;;;;;;;;;;;;;5.58;67.07;101841.81;105762;1260;61369;-77
2023/10/09 01:28:24;;;;;;;;;;;;;;;5.57;67.12;101837.58;105644;1258;124373;-78
2023/10/09 01:30:51;;;;;;;;;;;;;;;5.57;67.12;101839.14;105790;1262;66066;-77
2023/10/09 01:33:27;;;;;;;;;;;;;;;5.57;67.14;101842.45;105734;1262;72482;-77
2023/10/09 01:35:59;;;;;;;;;;;;;;;5.57;67.18;101841.02;105634;1259;124845;-79
2023/10/09 01:38:41;;;;;;;;;;;;;;;5.56;67.03;101839.41;105672;1259;61257;-77
2023/10/09 01:41:15;;;;;;;;;;;;;;;5.56;67.06;101841.66;105542;1259;124222;-77
2023/10/09 01:43:44;;;;;;;;;;;;;;;5.54;67.08;101844.69;105892;1262;66270;-77
2023/10/09 01:46:11;;;;;;;;;;;;;;;5.52;67.04;101845.61;105538;1259;124472;-78
2023/10/09 01:48:41;;;;;;;;;;;;;;;5.49;67.10;101842.65;105611;1265;61252;-79
2023/10/09 01:51:12;;;;;;;;;;;;;;;5.47;67.03;101837.98;105671;1262;61247;-77
2023/10/09 01:53:39;;;;;;;;;;;;;;;5.46;67.04;101838.58;105631;1259;125507;-77
2023/10/09 01:56:14;;;;;;;;;;;;;;;5.45;67.17;101830.22;105757;1262;65552;-77
2023/10/09 01:58:41;;;;;;;;;;;;;;;5.46;67.14;101823.48;105698;1260;125526;-76
2023/10/09 02:01:09;;;;;;;;;;;;;;;5.50;67.00;101823.52;105839;1262;61171;-77
2023/10/09 02:03:37;;;;;;;;;;;;;;;5.52;67.13;101826.46;105646;1260;61267;-77
2023/10/09 02:06:05;;;;;;;;;;;;;;;5.53;67.04;101823.94;105584;1259;125377;-79
2023/10/09 02:08:35;;;;;;;;;;;;;;;5.55;67.15;101820.54;105716;1261;66508;-77
2023/10/09 02:11:02;;;;;;;;;;;;;;;5.55;67.11;101821.42;105662;1260;124542;-77
2023/10/09 02:13:34;;;;;;;;;;;;;;;5.56;67.19;101818.20;105636;1259;61256;-77
2023/10/09 02:16:28;;;;;;;;;;;;;;;5.56;67.09;101821.32;105682;1263;125270;-77
2023/10/09 02:18:58;;;;;;;;;;;;;;;5.54;67.19;101816.34;105681;1259;74704;-79
2023/10/09 02:21:39;;;;;;;;;;;;;;;5.52;67.10;101819.11;105723;1262;66299;-76
2023/10/09 02:24:09;;;;;;;;;;;;;;;5.50;67.11;101814.84;105649;1259;125120;-78
2023/10/09 02:29:15;;;;;;;;;;;;;;;5.52;67.14;101791.42;108854;1259;124826;-78
2023/10/09 02:31:46;;;;;;;;;;;;;;;5.53;67.09;101784.21;108899;1259;74655;-78
2023/10/09 02:34:15;;;;;;;;;;;;;;;5.55;67.16;101782.75;107958;1262;125151;-77
2023/10/09 02:36:42;;;;;;;;;;;;;;;5.55;67.19;101779.81;105683;1259;72765;-78
2023/10/09 02:39:28;;;;;;;;;;;;;;;5.57;67.20;101775.90;105740;1260;61323;-77
2023/10/09 02:42:01;;;;;;;;;;;;;;;5.59;67.27;101770.84;105747;1259;125101;-77
2023/10/09 02:44:32;;;;;;;;;;;;;;;5.61;67.27;101772.02;108915;1259;73367;-78
2023/10/09 02:46:58;;;;;;;;;;;;;;;5.62;67.32;101772.40;108733;1259;125059;-77
2023/10/09 02:49:26;;;;;;;;;;;;;;;5.63;67.24;101768.30;108902;1259;72680;-76
2023/10/09 02:51:53;;;;;;;;;;;;;;;5.63;67.20;101768.67;106307;1259;61312;-77
2023/10/09 02:56:57;;;;;;;;;;;;;;;5.67;67.10;101764.67;105851;1260;74681;-77
2023/10/09 02:59:24;;;;;;;;;;;;;;;5.68;67.08;101758.66;105655;1263;124162;-77
2023/10/09 03:01:53;;;;;;;;;;;;;;;5.67;67.00;101756.13;105628;1260;73758;-77
2023/10/09 03:04:20;;;;;;;;;;;;;;;5.66;67.03;101754.18;105616;1262;124461;-79
2023/10/09 03:06:53;;;;;;;;;;;;;;;5.63;66.93;101753.84;105761;1262;61255;-77
2023/10/09 03:09:26;;;;;;;;;;;;;;;5.60;66.97;101750.54;108944;1259;74701;-76
2023/10/09 03:11:53;;;;;;;;;;;;;;;5.57;66.91;101743.74;108825;1262;123984;-77
2023/10/09 03:14:20;;;;;;;;;;;;;;;5.54;66.87;101747.52;107732;1260;72703;-76
2023/10/09 03:16:50;;;;;;;;;;;;;;;5.50;66.91;101747.85;105568;1259;124079;-76
2023/10/09 03:19:16;;;;;;;;;;;;;;;5.46;66.97;101744.79;105734;1259;61168;-76
2023/10/09 03:21:43;;;;;;;;;;;;;;;5.42;67.01;101741.77;105749;1260;74513;-76
2023/10/09 03:24:11;;;;;;;;;;;;;;;5.37;67.06;101737.81;105611;1260;124785;-76
2023/10/09 03:26:37;;;;;;;;;;;;;;;5.34;67.16;101732.87;105700;1260;72006;-77
2023/10/09 03:29:09;;;;;;;;;;;;;;;5.28;67.10;101729.23;105600;1258;124331;-76
2023/10/09 03:31:36;;;;;;;;;;;;;;;5.21;67.19;101723.80;108831;1260;60226;-77
2023/10/09 03:34:04;;;;;;;;;;;;;;;5.15;67.33;101718.87;106562;1261;124069;-77
2023/10/09 03:37:03;;;;;;;;;;;;;;;5.09;67.33;101713.44;105796;1262;65002;-78
2023/10/09 03:39:46;;;;;;;;;;;;;;;5.01;67.46;101713.98;106097;1260;73317;-77
2023/10/09 03:42:19;;;;;;;;;;;;;;;4.94;67.55;101710.59;105550;1259;124478;-77
2023/10/09 03:44:49;;;;;;;;;;;;;;;4.89;67.66;101711.46;105663;1264;61176;-77
2023/10/09 03:47:16;;;;;;;;;;;;;;;4.83;67.65;101707.48;105818;1259;125148;-78
2023/10/09 03:49:43;;;;;;;;;;;;;;;4.76;67.74;101701.30;105830;1262;66240;-79
2023/10/09 03:52:11;;;;;;;;;;;;;;;4.69;67.68;101702.41;106134;1264;125126;-80
2023/10/09 03:54:38;;;;;;;;;;;;;;;4.63;67.78;101707.39;106322;1263;61250;-81
2023/10/09 03:57:05;;;;;;;;;;;;;;;4.57;67.72;101718.35;106267;1262;61381;-80
2023/10/09 03:59:32;;;;;;;;;;;;;;;4.53;67.98;101717.86;105608;1265;123908;-80
2023/10/09 04:01:59;;;;;;;;;;;;;;;4.48;68.01;101716.70;105764;1263;66143;-80
2023/10/09 04:04:28;;;;;;;;;;;;;;;4.43;68.04;101721.77;105733;1262;124094;-80
2023/10/09 04:06:54;;;;;;;;;;;;;;;4.39;68.08;101723.05;106318;1263;61285;-81
2023/10/09 04:11:56;;;;;;;;;;;;;;;4.37;68.41;101710.39;105734;1260;124042;-79
2023/10/09 04:14:33;;;;;;;;;;;;;;;4.41;68.66;101713.44;105796;1260;65275;-79
2023/10/09 04:17:32;;;;;;;;;;;;;;;4.45;68.94;101708.70;105914;1264;124204;-79
2023/10/09 04:25:42;;;;;;;;;;;;;;;4.63;69.01;101714.70;105446;1260;73461;-79
2023/10/09 04:28:09;;;;;;;;;;;;;;;4.68;68.84;101707.36;105681;1259;124087;-80
2023/10/09 04:30:40;;;;;;;;;;;;;;;4.71;68.73;101697.67;105632;1260;71387;-79
2023/10/09 04:36:15;;;;;;;;;;;;;;;4.81;68.79;101699.36;105605;1259;124694;-80
2023/10/09 04:38:38;;;;;;;;;;;;;;;4.85;68.69;101695.59;105783;1260;74219;-80
2023/10/09 04:41:05;;;;;;;;;;;;;;;4.88;68.52;101690.55;105681;1259;123903;-84
2023/10/09 04:43:33;;;;;;;;;;;;;;;4.89;68.59;101684.35;106390;1262;72493;-82
2023/10/09 04:46:12;;;;;;;;;;;;;;;4.91;68.55;101682.89;106196;1261;124035;-81
2023/10/09 04:48:39;;;;;;;;;;;;;;;4.94;68.74;101678.39;106445;1262;59779;-83
2023/10/09 04:51:21;;;;;;;;;;;;;;;4.96;68.64;101680.63;106464;1262;74705;-79
2023/10/09 04:54:12;;;;;;;;;;;;;;;5.01;68.72;101677.78;105670;1260;123864;-79
2023/10/09 04:56:51;;;;;;;;;;;;;;;5.04;68.62;101669.13;105799;1260;71946;-80
2023/10/09 04:59:18;;;;;;;;;;;;;;;5.06;68.51;101667.84;105577;1260;124683;-80
2023/10/09 05:01:49;;;;;;;;;;;;;;;5.09;68.51;101663.30;105663;1258;61249;-81
2023/10/09 05:04:27;;;;;;;;;;;;;;;5.12;68.25;101666.63;105581;1260;124676;-80
2023/10/09 05:06:56;;;;;;;;;;;;;;;5.13;68.39;101661.66;105664;1259;66243;-81
2023/10/09 05:09:24;;;;;;;;;;;;;;;5.18;68.30;101660.06;105642;1263;72669;-81
2023/10/09 05:11:53;;;;;;;;;;;;;;;5.22;68.12;101661.17;106254;1260;124831;-79
2023/10/09 05:17:25;;;;;;;;;;;;;;;5.32;67.98;101656.19;106311;1259;125106;-79
2023/10/09 05:20:00;;;;;;;;;;;;;;;5.37;67.94;101662.43;106680;1262;64927;-80
2023/10/09 05:22:29;;;;;;;;;;;;;;;5.43;67.79;101661.76;106312;1261;125636;-79
2023/10/09 05:24:59;;;;;;;;;;;;;;;5.50;67.85;101658.85;106122;1259;61355;-77
2023/10/09 05:30:26;;;;;;;;;;;;;;;5.63;67.75;101651.63;106555;1259;124751;-80
2023/10/09 05:32:58;;;;;;;;;;;;;;;5.71;67.67;101648.60;106454;1261;66329;-79
2023/10/09 05:35:40;;;;;;;;;;;;;;;5.78;67.57;101646.76;106652;1259;124940;-79
2023/10/09 05:38:23;;;;;;;;;;;;;;;5.85;67.46;101643.30;106530;1263;61259;-80
2023/10/09 05:40:53;;;;;;;;;;;;;;;5.91;67.41;101638.29;106316;1258;124963;-81
2023/10/09 05:46:09;;;;;;;;;;;;;;;6.06;67.31;101633.25;106386;1260;125667;-80
2023/10/09 05:52:27;;;;;;;;;;;;;;;6.18;67.19;101638.64;106068;1260;63168;-80
2023/10/09 06:05:40;;;;;;;;;;;;;;;6.51;66.72;101630.88;105981;1260;124050;-80
2023/10/09 06:08:06;;;;;;;;;;;;;;;6.56;66.59;101638.35;106308;1262;61260;-80
2023/10/09 06:10:40;;;;;;;;;;;;;;;6.61;66.46;101630.77;106265;1258;124850;-80
2023/10/09 06:13:07;;;;;;;;;;;;;;;6.66;66.30;101621.08;106756;1259;65124;-80
2023/10/09 06:16:09;;;;;;;;;;;;;;;6.75;66.27;101619.14;106576;1259;72792;-80
2023/10/09 06:18:41;;;;;;;;;;;;;;;6.91;66.22;101616.67;106636;1260;61288;-80
2023/10/09 06:26:35;;;;;;;;;;;;;;;7.16;65.72;101627.07;106444;1260;65126;-81
2023/10/09 06:29:33;;;;;;;;;;;;;;;7.23;65.56;101629.88;106154;1262;124902;-81
2023/10/09 06:32:23;;;;;;;;;;;;;;;7.33;65.41;101635.50;106294;1265;61360;-81
2023/10/09 06:35:15;;;;;;;;;;;;;;;7.46;65.19;101642.07;106222;1263;123513;-80
2023/10/09 06:45:58;;;;;;;;;;;;;;;8.17;64.23;101632.18;106343;1259;61144;-81
2023/10/09 06:51:40;;;;;;;;;;;;;;;8.53;63.78;101640.42;106335;1260;73363;-81
2023/10/09 06:54:09;;;;;;;;;;;;;;;8.75;63.47;101645.29;106187;1263;124704;-81
2023/10/09 06:59:04;;;;;;;;;;;;;;;9.12;63.06;101640.17;106268;1260;124513;-81
2023/10/09 07:01:44;;;;;;;;;;;;;;;9.28;62.64;101642.30;106407;1262;61256;-81
2023/10/09 07:04:45;;;;;;;;;;;;;;;9.41;62.34;101646.37;106167;1263;124555;-79
2023/10/09 07:07:12;;;;;;;;;;;;;;;9.52;61.82;101645.27;106200;1264;65266;-79
2023/10/09 07:09:42;;;;;;;;;;;;;;;9.61;61.60;101644.77;106323;1262;73120;-80
2023/10/09 07:12:25;;;;;;;;;;;;;;;9.75;61.31;101646.45;106253;1260;124814;-80
2023/10/09 07:16:23;;;;;;;;;;;;;;;9.89;60.91;101641.41;106281;1260;61295;-80
2023/10/09 07:17:52;;;;;;;;;;;;;;;10.04;60.60;101640.80;106246;1260;124830;-81
2023/10/09 07:23:20;;;;;;;;;;;;;;;10.34;60.24;101640.09;106093;1262;124721;-81
2023/10/09 07:25:57;;;;;;;;;;;;;;;10.47;59.96;101642.21;106381;1259;59396;-80
2023/10/09 07:28:36;;;;;;;;;;;;;;;10.58;59.62;101636.88;106283;1263;124453;-81
2023/10/09 07:31:03;;;;;;;;;;;;;;;10.73;59.32;101645.86;106367;1261;74685;-81
2023/10/09 07:36:15;;;;;;;;;;;;;;;10.94;58.95;101647.17;106365;1262;124411;-81
2023/10/09 07:38:44;;;;;;;;;;;;;;;11.03;58.66;101641.73;106314;1263;61386;-81
2023/10/09 07:48:56;;;;;;;;;;;;;;;11.22;57.64;101641.22;106314;1261;71926;-80
2023/10/09 07:51:30;;;;;;;;;;;;;;;11.31;57.37;101638.70;106134;1263;61290;-81
2023/10/09 07:53:57;;;;;;;;;;;;;;;11.37;57.21;101637.89;107024;1267;124278;-80
2023/10/09 07:56:24;;;;;;;;;;;;;;;11.44;57.12;101637.93;106394;1263;74709;-80
2023/10/09 07:58:51;;;;;;;;;;;;;;;11.49;56.87;101641.83;106308;1260;124480;-80
2023/10/09 08:04:05;;;;;;;;;;;;;;;11.62;56.38;101639.48;106320;1265;61349;-79
2023/10/09 08:06:42;;;;;;;;;;;;;;;11.71;56.27;101635.54;106394;1260;61129;-81
2023/10/09 08:17:15;;;;;;;;;;;;;;;12.02;55.64;101626.27;106291;1259;124469;-80
2023/10/09 08:19:56;;;;;;;;;;;;;;;12.10;55.38;101626.16;106431;1266;61285;-80
2023/10/09 08:24:56;;;;;;;;;;;;;;;12.23;54.98;101607.05;106336;1262;66276;-80
2023/10/09 08:33:00;;;;;;;;;;;;;;;12.44;54.38;101590.48;106462;1262;61275;-78
2023/10/09 08:35:32;;;;;;;;;;;;;;;12.50;54.36;101587.83;106271;1258;125863;-80
2023/10/09 08:38:08;;;;;;;;;;;;;;;12.56;54.09;101583.27;106408;1258;64980;-80
2023/10/09 08:40:42;;;;;;;;;;;;;;;12.58;53.92;101582.25;106223;1263;125153;-79
2023/10/09 08:43:10;;;;;;;;;;;;;;;12.54;53.58;101579.35;106298;1261;61269;-80
2023/10/09 08:45:39;;;;;;;;;;;;;;;12.47;53.39;101577.89;105703;1261;61239;-80
2023/10/09 08:48:07;;;;;;;;;;;;;;;12.38;53.26;101573.40;105629;1270;124449;-79
2023/10/09 08:50:34;;;;;;;;;;;;;;;12.30;53.29;101576.66;105794;1260;65058;-79
2023/10/09 08:53:03;;;;;;;;;;;;;;;12.23;53.19;101573.96;105512;1261;124239;-79
2023/10/09 08:55:29;;;;;;;;;;;;;;;12.17;53.36;101577.49;105702;1266;61299;-79
2023/10/09 08:57:58;;;;;;;;;;;;;;;12.11;53.26;101577.48;105778;1262;61250;-80
2023/10/09 09:00:24;;;;;;;;;;;;;;;11.99;53.02;101579.89;105699;1262;124177;-80
2023/10/09 09:02:53;;;;;;;;;;;;;;;11.87;53.10;101581.77;105541;1266;64000;-79
2023/10/09 09:05:24;;;;;;;;;;;;;;;11.80;52.86;101588.02;105902;1260;125126;-80
2023/10/09 09:07:56;;;;;;;;;;;;;;;11.69;52.85;101587.33;106307;1258;59476;-79
2023/10/09 09:10:35;;;;;;;;;;;;;;;11.61;52.96;101586.70;106270;1261;124522;-79
2023/10/09 09:13:05;;;;;;;;;;;;;;;11.56;53.05;101586.34;106299;1261;74774;-79
2023/10/09 09:15:32;;;;;;;;;;;;;;;11.52;52.94;101584.11;106369;1261;66307;-79
2023/10/09 09:18:17;;;;;;;;;;;;;;;11.48;52.72;101584.48;106118;1260;176706;-79
2023/10/09 09:20:46;;;;;;;;;;;;;;;11.43;52.78;101584.32;106437;1258;61290;-79
2023/10/09 09:23:13;;;;;;;;;;;;;;;11.43;52.81;101589.77;106125;1260;124533;-79
2023/10/09 09:25:44;;;;;;;;;;;;;;;11.50;53.00;101585.98;106412;1259;73638;-79
2023/10/09 09:28:19;;;;;;;;;;;;;;;11.67;53.10;101584.95;106255;1262;124859;-80
2023/10/09 09:30:50;;;;;;;;;;;;;;;11.87;52.92;101583.72;106316;1261;75268;-80
2023/10/09 09:33:20;;;;;;;;;;;;;;;12.11;52.73;101577.80;106258;1261;61234;-79
2023/10/09 09:36:02;;;;;;;;;;;;;;;12.34;52.53;101575.89;106254;1259;124432;-80
2023/10/09 09:38:29;;;;;;;;;;;;;;;12.56;52.28;101570.95;106434;1260;73469;-79
2023/10/09 09:40:56;;;;;;;;;;;;;;;12.73;52.02;101579.87;106314;1261;124442;-79
2023/10/09 09:43:22;;;;;;;;;;;;;;;12.85;51.70;101578.30;106409;1263;71798;-80
2023/10/09 09:45:52;;;;;;;;;;;;;;;12.98;51.46;101578.65;106411;1263;61153;-79
2023/10/09 09:48:19;;;;;;;;;;;;;;;13.17;51.43;101580.60;106365;1262;124461;-80
2023/10/09 09:50:47;;;;;;;;;;;;;;;13.35;51.26;101573.73;106456;1260;73367;-79
2023/10/09 09:53:17;;;;;;;;;;;;;;;13.53;50.95;101576.69;106386;1262;124593;-79
2023/10/09 09:55:57;;;;;;;;;;;;;;;13.71;50.41;101577.30;106499;1260;72744;-80
2023/10/09 09:58:24;;;;;;;;;;;;;;;13.75;49.88;101573.00;106315;1260;124494;-80
2023/10/09 10:00:55;;;;;;;;;;;;;;;13.69;49.61;101571.97;106281;1263;61160;-80
2023/10/09 10:03:33;;;;;;;;;;;;;;;13.65;49.35;101568.70;106181;1263;74361;-80
2023/10/09 10:05:59;;;;;;;;;;;;;;;13.60;49.15;101568.21;106206;1263;124480;-80
2023/10/09 10:08:33;;;;;;;;;;;;;;;13.56;49.10;101562.31;106271;1260;72837;-80
2023/10/09 10:11:14;;;;;;;;;;;;;;;13.56;49.39;101553.64;106224;1260;125721;-82
2023/10/09 10:13:40;;;;;;;;;;;;;;;13.49;49.03;101555.58;106291;1263;61247;-80
2023/10/09 10:16:15;;;;;;;;;;;;;;;13.37;48.69;101552.27;106225;1262;125402;-80
2023/10/09 10:18:59;;;;;;;;;;;;;;;13.19;48.79;101553.70;106409;1260;65987;-80
2023/10/09 10:24:12;;;;;;;;;;;;;;;12.96;48.40;101550.95;106512;1259;124930;-80
2023/10/09 10:26:38;;;;;;;;;;;;;;;12.81;48.25;101553.87;106472;1259;61146;-80
2023/10/09 10:29:26;;;;;;;;;;;;;;;12.65;48.26;101555.54;106243;1262;124770;-79
2023/10/09 10:31:55;;;;;;;;;;;;;;;12.51;48.39;101551.23;106417;1261;66007;-79
2023/10/09 10:34:26;;;;;;;;;;;;;;;12.37;48.42;101550.10;106297;1260;124510;-81
2023/10/09 10:36:58;;;;;;;;;;;;;;;12.24;48.45;101552.17;106364;1261;61276;-79
2023/10/09 10:39:42;;;;;;;;;;;;;;;12.15;48.55;101558.05;106435;1257;60249;-81
2023/10/09 10:42:33;;;;;;;;;;;;;;;12.05;48.56;101557.23;106255;1261;124634;-79
2023/10/09 10:45:00;;;;;;;;;;;;;;;11.96;48.62;101556.04;106318;1262;68220;-79
2023/10/09 10:47:36;;;;;;;;;;;;;;;11.84;48.59;101551.25;106292;1261;124972;-79
2023/10/09 10:52:57;;;;;;;;;;;;;;;11.70;48.92;101548.47;106363;1263;124417;-79
2023/10/09 10:58:00;;;;;;;;;;;;;;;11.80;48.93;101545.48;106385;1263;66251;-79
2023/10/09 11:03:23;;;;;;;;;;;;;;;11.93;48.74;101544.16;106404;1262;61165;-80
2023/10/09 11:05:50;;;;;;;;;;;;;;;11.98;48.83;101544.67;106302;1263;125457;-79
2023/10/09 11:08:22;;;;;;;;;;;;;;;12.02;48.73;101545.17;106346;1262;74685;-79
2023/10/09 11:10:54;;;;;;;;;;;;;;;12.04;48.62;101540.67;106243;1260;125455;-79
2023/10/09 11:13:31;;;;;;;;;;;;;;;12.03;48.42;101535.70;106542;1260;72706;-79
2023/10/09 11:16:28;;;;;;;;;;;;;;;12.09;48.39;101533.41;106606;1260;61391;-79
2023/10/09 11:18:57;;;;;;;;;;;;;;;12.14;48.30;101523.73;106556;1263;61228;-80
2023/10/09 11:21:30;;;;;;;;;;;;;;;12.19;48.21;101517.89;106450;1261;73287;-79
2023/10/09 11:24:24;;;;;;;;;;;;;;;12.19;48.11;101509.81;106298;1258;124401;-79
2023/10/09 11:26:55;;;;;;;;;;;;;;;12.19;48.14;101504.35;106414;1260;71730;-79
2023/10/09 11:32:11;;;;;;;;;;;;;;;12.34;48.23;101510.06;106573;1260;61277;-78
2023/10/09 11:34:37;;;;;;;;;;;;;;;12.39;48.16;101503.20;106253;1260;125720;-79
2023/10/09 11:37:11;;;;;;;;;;;;;;;12.43;48.00;101496.06;106479;1263;65262;-79
2023/10/09 11:39:50;;;;;;;;;;;;;;;12.42;47.86;101491.13;107033;1260;71463;-79
2023/10/09 11:42:48;;;;;;;;;;;;;;;12.43;47.72;101487.27;106313;1263;124510;-80
2023/10/09 11:45:23;;;;;;;;;;;;;;;12.44;47.62;101483.63;106398;1260;59592;-80
2023/10/09 11:48:00;;;;;;;;;;;;;;;12.47;47.52;101481.77;106349;1261;125433;-79
2023/10/09 11:50:43;;;;;;;;;;;;;;;12.50;47.71;101477.81;106486;1260;66241;-79
2023/10/09 11:53:19;;;;;;;;;;;;;;;12.53;47.56;101468.20;106326;1259;124264;-79
2023/10/09 11:55:49;;;;;;;;;;;;;;;12.51;47.52;101467.45;106268;1259;61395;-79
2023/10/09 11:58:22;;;;;;;;;;;;;;;12.49;47.42;101463.14;106198;1260;124499;-79
2023/10/09 12:00:56;;;;;;;;;;;;;;;12.48;47.38;101466.12;106413;1260;74634;-79
2023/10/09 12:03:29;;;;;;;;;;;;;;;12.50;47.36;101458.61;106298;1259;66317;-80
2023/10/09 12:05:56;;;;;;;;;;;;;;;12.54;47.27;101451.85;106052;1260;124954;-79
2023/10/09 12:08:26;;;;;;;;;;;;;;;12.52;47.09;101447.23;105740;1262;61400;-79
2023/10/09 12:10:54;;;;;;;;;;;;;;;12.46;47.00;101442.82;105756;1259;124518;-79
2023/10/09 12:13:23;;;;;;;;;;;;;;;12.42;47.11;101440.96;105663;1260;74698;-79
2023/10/09 12:15:51;;;;;;;;;;;;;;;12.42;47.17;101443.94;106332;1262;66032;-80
2023/10/09 12:18:19;;;;;;;;;;;;;;;12.45;47.22;101444.20;106377;1260;124334;-81
2023/10/09 12:20:50;;;;;;;;;;;;;;;12.47;47.17;101441.45;106380;1259;61336;-80
2023/10/09 12:23:18;;;;;;;;;;;;;;;12.49;47.11;101440.27;106250;1262;124429;-81
2023/10/09 12:25:45;;;;;;;;;;;;;;;12.51;47.04;101440.17;106410;1260;74681;-81
2023/10/09 12:28:14;;;;;;;;;;;;;;;12.54;47.05;101444.83;106096;1264;124450;-81
2023/10/09 12:30:41;;;;;;;;;;;;;;;12.56;46.93;101439.77;106206;1259;72818;-81
2023/10/09 12:33:08;;;;;;;;;;;;;;;12.59;46.83;101440.55;106413;1260;61252;-81
2023/10/09 12:35:38;;;;;;;;;;;;;;;12.66;46.80;101441.45;106181;1259;124566;-81
2023/10/09 12:38:09;;;;;;;;;;;;;;;12.75;46.64;101437.64;106345;1262;73885;-81
2023/10/09 12:40:36;;;;;;;;;;;;;;;12.83;46.35;101444.21;106177;1260;124664;-81
2023/10/09 12:43:03;;;;;;;;;;;;;;;12.87;46.12;101442.18;106408;1260;71424;-81
2023/10/09 12:45:32;;;;;;;;;;;;;;;12.90;46.08;101436.11;106443;1258;61336;-81
2023/10/09 12:47:59;;;;;;;;;;;;;;;12.97;46.06;101440.17;106225;1260;124487;-81
2023/10/09 12:50:28;;;;;;;;;;;;;;;13.05;45.97;101444.24;106269;1260;74461;-81
2023/10/09 12:53:07;;;;;;;;;;;;;;;13.11;45.86;101446.52;106275;1260;124331;-81
2023/10/09 12:55:40;;;;;;;;;;;;;;;13.14;45.82;101447.64;106410;1262;71343;-81
2023/10/09 12:58:07;;;;;;;;;;;;;;;13.18;45.69;101448.99;106345;1260;61885;-81
2023/10/09 13:00:38;;;;;;;;;;;;;;;13.25;45.63;101453.91;106347;1259;124157;-81
2023/10/09 13:03:16;;;;;;;;;;;;;;;13.28;45.71;101452.05;107159;1259;74468;-81
2023/10/09 13:05:52;;;;;;;;;;;;;;;13.31;45.74;101448.11;106385;1258;125391;-81
2023/10/09 13:08:21;;;;;;;;;;;;;;;13.37;45.86;101442.98;106295;1257;72769;-81
2023/10/09 13:10:58;;;;;;;;;;;;;;;13.46;45.76;101429.98;106291;1258;125659;-81
2023/10/09 13:13:36;;;;;;;;;;;;;;;13.56;45.65;101430.73;106348;1260;61312;-81
2023/10/09 13:16:06;;;;;;;;;;;;;;;13.69;45.49;101437.91;106380;1260;74403;-81
2023/10/09 13:18:32;;;;;;;;;;;;;;;13.79;45.43;101441.31;106303;1260;124507;-81
2023/10/09 13:21:03;;;;;;;;;;;;;;;13.88;45.25;101435.36;106391;1259;72746;-82
2023/10/09 13:23:38;;;;;;;;;;;;;;;13.92;45.01;101441.44;106279;1258;125115;-81
2023/10/09 13:26:17;;;;;;;;;;;;;;;13.89;45.02;101438.36;106373;1261;61369;-80
2023/10/09 13:28:45;;;;;;;;;;;;;;;13.83;45.16;101434.88;106184;1263;124735;-80
2023/10/09 13:31:13;;;;;;;;;;;;;;;13.75;45.11;101439.81;106324;1260;65181;-80
2023/10/09 13:33:40;;;;;;;;;;;;;;;13.66;45.15;101436.26;106648;1260;71562;-80
2023/10/09 13:36:17;;;;;;;;;;;;;;;13.59;45.11;101436.79;106218;1260;124479;-79
2023/10/09 13:38:43;;;;;;;;;;;;;;;13.52;45.09;101438.77;106412;1259;59356;-79
2023/10/09 13:41:13;;;;;;;;;;;;;;;13.46;45.06;101432.42;105886;1259;124416;-80
2023/10/09 13:43:40;;;;;;;;;;;;;;;13.39;44.92;101428.40;106000;1260;65699;-79
2023/10/09 13:46:08;;;;;;;;;;;;;;;13.33;44.96;101427.55;106438;1258;71456;-79
2023/10/09 13:48:38;;;;;;;;;;;;;;;13.28;44.92;101426.67;108800;1259;123094;-80
2023/10/09 13:51:08;;;;;;;;;;;;;;;13.24;45.08;101428.35;106499;1260;61353;-80
2023/10/09 13:53:35;;;;;;;;;;;;;;;13.22;44.96;101428.13;106338;1258;124738;-80
2023/10/09 13:56:02;;;;;;;;;;;;;;;13.21;44.79;101426.34;106332;1259;66618;-80
2023/10/09 13:58:31;;;;;;;;;;;;;;;13.19;44.75;101426.12;106209;1262;124613;-76
2023/10/09 14:00:58;;;;;;;;;;;;;;;13.18;44.48;101423.26;105623;1258;62049;-79
2023/10/09 14:03:27;;;;;;;;;;;;;;;13.11;44.24;101425.55;105814;1260;61276;-79
2023/10/09 14:06:10;;;;;;;;;;;;;;;13.07;44.31;101426.69;106782;1260;124204;-79
2023/10/09 14:08:42;;;;;;;;;;;;;;;13.07;44.52;101429.67;105833;1260;66250;-79
2023/10/09 14:11:13;;;;;;;;;;;;;;;13.08;44.51;101426.35;105765;1260;124400;-79
2023/10/09 14:13:40;;;;;;;;;;;;;;;13.08;44.40;101423.89;105871;1260;61267;-79
2023/10/09 14:16:07;;;;;;;;;;;;;;;13.07;44.45;101420.86;105815;1261;61176;-79
2023/10/09 14:18:33;;;;;;;;;;;;;;;13.04;44.42;101417.46;105658;1264;124220;-79
2023/10/09 14:21:04;;;;;;;;;;;;;;;13.01;44.11;101420.01;105902;1262;65894;-79
2023/10/09 14:23:34;;;;;;;;;;;;;;;12.97;44.06;101418.48;105674;1260;125358;-79
2023/10/09 14:26:06;;;;;;;;;;;;;;;12.96;44.00;101418.48;106746;1261;61365;-79
2023/10/09 14:28:32;;;;;;;;;;;;;;;12.97;43.96;101415.50;105886;1259;125016;-79
2023/10/09 14:31:00;;;;;;;;;;;;;;;13.00;44.07;101421.23;106454;1259;74722;-79
2023/10/09 14:33:32;;;;;;;;;;;;;;;13.05;44.05;101433.16;106342;1257;66255;-81
2023/10/09 14:36:02;;;;;;;;;;;;;;;13.08;44.10;101434.80;107449;1257;124347;-80
2023/10/09 14:38:32;;;;;;;;;;;;;;;13.11;44.02;101430.48;106349;1260;59948;-80
2023/10/09 14:40:59;;;;;;;;;;;;;;;13.15;44.04;101431.46;106328;1260;124403;-80
2023/10/09 14:43:33;;;;;;;;;;;;;;;13.14;43.89;101428.98;106336;1259;74742;-80
2023/10/09 14:45:59;;;;;;;;;;;;;;;13.11;43.70;101426.27;106449;1261;66081;-80